sensor_id;sensor_type;location;lat;lon;timestamp;P1;durP1;ratioP1;P2;durP2;ratioP2
49071;SDS011;52656;52.610;10.236;2023-08-24T00:01:25;10.43;;;4.40;;
49071;SDS011;52656;52.610;10.236;2023-08-24T00:03:50;6.53;;;4.35;;
49071;SDS011;52656;52.610;10.236;2023-08-24T00:06:16;5.70;;;4.07;;
49071;SDS011;52656;52.610;10.236;2023-08-24T00:08:41;5.85;;;4.38;;
49071;SDS011;52656;52.610;10.236;2023-08-24T00:11:07;5.80;;;4.45;;
49071;SDS011;52656;52.610;10.236;2023-08-24T00:13:33;6.97;;;4.63;;
49071;SDS011;52656;52.610;10.236;2023-08-24T00:15:58;6.68;;;4.43;;
49071;SDS011;52656;52.610;10.236;2023-08-24T00:18:24;6.13;;;4.45;;
49071;SDS011;52656;52.610;10.236;2023-08-24T00:20:49;6.78;;;4.38;;
49071;SDS011;52656;52.610;10.236;2023-08-24T00:23:15;9.30;;;4.70;;
49071;SDS011;52656;52.610;10.236;2023-08-24T00:25:41;5.95;;;3.75;;
49071;SDS011;52656;52.610;10.236;2023-08-24T00:28:06;6.57;;;4.00;;
49071;SDS011;52656;52.610;10.236;2023-08-24T00:32:57;7.72;;;4.45;;
49071;SDS011;52656;52.610;10.236;2023-08-24T00:35:22;6.10;;;4.22;;
49071;SDS011;52656;52.610;10.236;2023-08-24T00:37:48;5.95;;;3.92;;
49071;SDS011;52656;52.610;10.236;2023-08-24T00:42:39;6.30;;;4.57;;
49071;SDS011;52656;52.610;10.236;2023-08-24T00:45:06;8.18;;;4.00;;
49071;SDS011;52656;52.610;10.236;2023-08-24T00:47:32;5.53;;;4.53;;
49071;SDS011;52656;52.610;10.236;2023-08-24T00:49:59;6.03;;;4.53;;
49071;SDS011;52656;52.610;10.236;2023-08-24T00:52:25;8.00;;;4.20;;
49071;SDS011;52656;52.610;10.236;2023-08-24T00:54:53;5.47;;;4.57;;
49071;SDS011;52656;52.610;10.236;2023-08-24T00:57:19;6.03;;;4.22;;
49071;SDS011;52656;52.610;10.236;2023-08-24T00:59:44;5.13;;;4.07;;
49071;SDS011;52656;52.610;10.236;2023-08-24T01:02:11;6.25;;;3.95;;
49071;SDS011;52656;52.610;10.236;2023-08-24T01:04:37;6.25;;;4.47;;
49071;SDS011;52656;52.610;10.236;2023-08-24T01:07:02;5.60;;;4.05;;
49071;SDS011;52656;52.610;10.236;2023-08-24T01:09:28;5.88;;;4.47;;
49071;SDS011;52656;52.610;10.236;2023-08-24T01:17:05;5.32;;;4.03;;
49071;SDS011;52656;52.610;10.236;2023-08-24T01:19:37;6.40;;;4.60;;
49071;SDS011;52656;52.610;10.236;2023-08-24T01:22:07;6.55;;;4.82;;
49071;SDS011;52656;52.610;10.236;2023-08-24T01:25:04;6.38;;;4.65;;
49071;SDS011;52656;52.610;10.236;2023-08-24T01:27:42;6.30;;;4.60;;
49071;SDS011;52656;52.610;10.236;2023-08-24T01:30:09;9.07;;;4.78;;
49071;SDS011;52656;52.610;10.236;2023-08-24T01:32:36;6.15;;;4.53;;
49071;SDS011;52656;52.610;10.236;2023-08-24T01:37:28;7.93;;;4.32;;
49071;SDS011;52656;52.610;10.236;2023-08-24T01:42:38;5.22;;;4.38;;
49071;SDS011;52656;52.610;10.236;2023-08-24T01:45:13;6.95;;;4.35;;
49071;SDS011;52656;52.610;10.236;2023-08-24T01:47:40;5.25;;;4.25;;
49071;SDS011;52656;52.610;10.236;2023-08-24T01:50:06;7.25;;;4.70;;
49071;SDS011;52656;52.610;10.236;2023-08-24T01:54:58;5.43;;;4.40;;
49071;SDS011;52656;52.610;10.236;2023-08-24T01:57:24;7.75;;;4.95;;
49071;SDS011;52656;52.610;10.236;2023-08-24T02:02:15;8.10;;;5.10;;
49071;SDS011;52656;52.610;10.236;2023-08-24T02:07:05;6.30;;;5.03;;
49071;SDS011;52656;52.610;10.236;2023-08-24T02:11:56;7.80;;;4.80;;
49071;SDS011;52656;52.610;10.236;2023-08-24T02:16:46;7.20;;;4.80;;
49071;SDS011;52656;52.610;10.236;2023-08-24T02:21:37;9.57;;;5.13;;
49071;SDS011;52656;52.610;10.236;2023-08-24T02:26:28;8.05;;;4.55;;
49071;SDS011;52656;52.610;10.236;2023-08-24T02:31:18;7.40;;;4.65;;
49071;SDS011;52656;52.610;10.236;2023-08-24T02:36:09;11.67;;;5.20;;
49071;SDS011;52656;52.610;10.236;2023-08-24T02:41:00;6.90;;;5.93;;
49071;SDS011;52656;52.610;10.236;2023-08-24T02:43:29;7.40;;;6.50;;
49071;SDS011;52656;52.610;10.236;2023-08-24T02:48:24;16.73;;;6.22;;
49071;SDS011;52656;52.610;10.236;2023-08-24T02:53:15;9.30;;;5.83;;
49071;SDS011;52656;52.610;10.236;2023-08-24T02:58:05;7.80;;;5.17;;
49071;SDS011;52656;52.610;10.236;2023-08-24T03:02:56;6.63;;;5.10;;
49071;SDS011;52656;52.610;10.236;2023-08-24T03:07:46;10.23;;;5.57;;
49071;SDS011;52656;52.610;10.236;2023-08-24T03:12:37;8.52;;;5.82;;
49071;SDS011;52656;52.610;10.236;2023-08-24T03:17:28;10.52;;;5.75;;
49071;SDS011;52656;52.610;10.236;2023-08-24T03:22:18;7.13;;;6.03;;
49071;SDS011;52656;52.610;10.236;2023-08-24T03:27:09;7.33;;;5.13;;
49071;SDS011;52656;52.610;10.236;2023-08-24T03:31:59;6.43;;;5.07;;
49071;SDS011;52656;52.610;10.236;2023-08-24T03:36:51;6.75;;;5.30;;
49071;SDS011;52656;52.610;10.236;2023-08-24T03:41:42;7.57;;;4.90;;
49071;SDS011;52656;52.610;10.236;2023-08-24T03:46:33;8.03;;;4.80;;
49071;SDS011;52656;52.610;10.236;2023-08-24T03:51:24;7.28;;;5.20;;
49071;SDS011;52656;52.610;10.236;2023-08-24T03:56:14;6.65;;;4.57;;
49071;SDS011;52656;52.610;10.236;2023-08-24T04:01:09;8.37;;;5.33;;
49071;SDS011;52656;52.610;10.236;2023-08-24T04:03:35;8.82;;;5.13;;
49071;SDS011;52656;52.610;10.236;2023-08-24T04:08:26;9.23;;;5.43;;
49071;SDS011;52656;52.610;10.236;2023-08-24T04:13:16;7.72;;;5.47;;
49071;SDS011;52656;52.610;10.236;2023-08-24T04:18:07;9.77;;;5.43;;
49071;SDS011;52656;52.610;10.236;2023-08-24T04:22:58;7.22;;;5.55;;
49071;SDS011;52656;52.610;10.236;2023-08-24T04:27:48;11.65;;;5.72;;
49071;SDS011;52656;52.610;10.236;2023-08-24T04:32:39;6.13;;;5.10;;
49071;SDS011;52656;52.610;10.236;2023-08-24T04:37:30;7.00;;;5.07;;
49071;SDS011;52656;52.610;10.236;2023-08-24T04:42:21;6.60;;;4.78;;
49071;SDS011;52656;52.610;10.236;2023-08-24T04:47:11;6.07;;;5.10;;
49071;SDS011;52656;52.610;10.236;2023-08-24T04:52:02;9.75;;;4.50;;
49071;SDS011;52656;52.610;10.236;2023-08-24T04:56:53;7.15;;;4.80;;
49071;SDS011;52656;52.610;10.236;2023-08-24T05:01:43;6.07;;;4.32;;
49071;SDS011;52656;52.610;10.236;2023-08-24T05:06:34;5.82;;;4.47;;
49071;SDS011;52656;52.610;10.236;2023-08-24T05:11:26;6.95;;;4.35;;
49071;SDS011;52656;52.610;10.236;2023-08-24T05:13:54;7.35;;;4.88;;
49071;SDS011;52656;52.610;10.236;2023-08-24T05:18:45;9.32;;;4.95;;
49071;SDS011;52656;52.610;10.236;2023-08-24T05:21:11;7.57;;;5.40;;
49071;SDS011;52656;52.610;10.236;2023-08-24T05:26:02;6.13;;;4.77;;
49071;SDS011;52656;52.610;10.236;2023-08-24T05:30:53;6.65;;;4.78;;
49071;SDS011;52656;52.610;10.236;2023-08-24T05:35:45;6.28;;;5.03;;
49071;SDS011;52656;52.610;10.236;2023-08-24T05:40:35;8.50;;;5.20;;
49071;SDS011;52656;52.610;10.236;2023-08-24T05:43:02;7.05;;;4.70;;
49071;SDS011;52656;52.610;10.236;2023-08-24T05:47:53;6.77;;;5.20;;
49071;SDS011;52656;52.610;10.236;2023-08-24T05:52:43;8.40;;;5.63;;
49071;SDS011;52656;52.610;10.236;2023-08-24T05:57:34;7.95;;;5.97;;
49071;SDS011;52656;52.610;10.236;2023-08-24T06:02:25;8.13;;;6.07;;
49071;SDS011;52656;52.610;10.236;2023-08-24T06:07:16;8.43;;;6.60;;
49071;SDS011;52656;52.610;10.236;2023-08-24T06:09:42;9.73;;;6.75;;
49071;SDS011;52656;52.610;10.236;2023-08-24T06:14:32;7.78;;;6.10;;
49071;SDS011;52656;52.610;10.236;2023-08-24T06:19:23;13.65;;;6.93;;
49071;SDS011;52656;52.610;10.236;2023-08-24T06:24:13;8.38;;;6.97;;
49071;SDS011;52656;52.610;10.236;2023-08-24T06:29:04;8.98;;;6.70;;
49071;SDS011;52656;52.610;10.236;2023-08-24T06:31:30;12.65;;;7.32;;
49071;SDS011;52656;52.610;10.236;2023-08-24T06:33:56;11.43;;;7.68;;
49071;SDS011;52656;52.610;10.236;2023-08-24T06:38:47;10.45;;;6.97;;
49071;SDS011;52656;52.610;10.236;2023-08-24T06:41:12;7.78;;;6.97;;
49071;SDS011;52656;52.610;10.236;2023-08-24T06:46:05;7.07;;;5.97;;
49071;SDS011;52656;52.610;10.236;2023-08-24T06:48:34;12.48;;;6.78;;
49071;SDS011;52656;52.610;10.236;2023-08-24T06:51:00;8.20;;;6.20;;
49071;SDS011;52656;52.610;10.236;2023-08-24T06:53:26;11.50;;;6.47;;
49071;SDS011;52656;52.610;10.236;2023-08-24T06:58:20;8.82;;;6.40;;
49071;SDS011;52656;52.610;10.236;2023-08-24T07:00:46;9.55;;;6.47;;
49071;SDS011;52656;52.610;10.236;2023-08-24T07:03:11;11.60;;;6.55;;
49071;SDS011;52656;52.610;10.236;2023-08-24T07:05:36;7.90;;;5.20;;
49071;SDS011;52656;52.610;10.236;2023-08-24T07:08:02;7.57;;;5.53;;
49071;SDS011;52656;52.610;10.236;2023-08-24T07:10:28;6.03;;;4.88;;
49071;SDS011;52656;52.610;10.236;2023-08-24T07:12:53;9.02;;;5.10;;
49071;SDS011;52656;52.610;10.236;2023-08-24T07:15:19;7.15;;;5.07;;
49071;SDS011;52656;52.610;10.236;2023-08-24T07:17:44;8.75;;;5.57;;
49071;SDS011;52656;52.610;10.236;2023-08-24T07:20:09;6.63;;;4.82;;
49071;SDS011;52656;52.610;10.236;2023-08-24T07:22:36;6.15;;;4.45;;
49071;SDS011;52656;52.610;10.236;2023-08-24T07:25:01;8.93;;;5.15;;
49071;SDS011;52656;52.610;10.236;2023-08-24T07:27:30;8.75;;;4.82;;
49071;SDS011;52656;52.610;10.236;2023-08-24T07:29:59;8.10;;;4.05;;
49071;SDS011;52656;52.610;10.236;2023-08-24T07:32:26;12.88;;;4.28;;
49071;SDS011;52656;52.610;10.236;2023-08-24T07:34:52;6.22;;;3.67;;
49071;SDS011;52656;52.610;10.236;2023-08-24T07:37:17;8.27;;;4.38;;
49071;SDS011;52656;52.610;10.236;2023-08-24T07:39:42;8.35;;;3.80;;
49071;SDS011;52656;52.610;10.236;2023-08-24T07:42:08;5.78;;;4.25;;
49071;SDS011;52656;52.610;10.236;2023-08-24T07:44:33;8.32;;;4.47;;
49071;SDS011;52656;52.610;10.236;2023-08-24T07:46:58;6.88;;;3.90;;
49071;SDS011;52656;52.610;10.236;2023-08-24T07:49:24;8.98;;;4.60;;
49071;SDS011;52656;52.610;10.236;2023-08-24T07:51:49;9.25;;;3.83;;
49071;SDS011;52656;52.610;10.236;2023-08-24T07:54:14;7.00;;;3.85;;
49071;SDS011;52656;52.610;10.236;2023-08-24T07:56:40;7.45;;;4.78;;
49071;SDS011;52656;52.610;10.236;2023-08-24T07:59:05;5.88;;;3.58;;
49071;SDS011;52656;52.610;10.236;2023-08-24T08:01:31;8.90;;;3.97;;
49071;SDS011;52656;52.610;10.236;2023-08-24T08:03:57;8.25;;;4.20;;
49071;SDS011;52656;52.610;10.236;2023-08-24T08:06:22;6.60;;;3.50;;
49071;SDS011;52656;52.610;10.236;2023-08-24T08:08:49;10.50;;;4.20;;
49071;SDS011;52656;52.610;10.236;2023-08-24T08:11:16;6.22;;;3.70;;
49071;SDS011;52656;52.610;10.236;2023-08-24T08:13:42;6.70;;;3.80;;
49071;SDS011;52656;52.610;10.236;2023-08-24T08:16:08;6.05;;;3.90;;
49071;SDS011;52656;52.610;10.236;2023-08-24T08:18:34;8.15;;;3.90;;
49071;SDS011;52656;52.610;10.236;2023-08-24T08:21:00;6.88;;;4.25;;
49071;SDS011;52656;52.610;10.236;2023-08-24T08:23:27;6.57;;;4.07;;
49071;SDS011;52656;52.610;10.236;2023-08-24T08:25:52;9.18;;;3.50;;
49071;SDS011;52656;52.610;10.236;2023-08-24T08:28:18;5.32;;;3.60;;
49071;SDS011;52656;52.610;10.236;2023-08-24T08:30:44;7.80;;;3.53;;
49071;SDS011;52656;52.610;10.236;2023-08-24T08:33:09;7.35;;;3.80;;
49071;SDS011;52656;52.610;10.236;2023-08-24T08:35:35;6.95;;;3.53;;
49071;SDS011;52656;52.610;10.236;2023-08-24T08:38:03;7.72;;;3.70;;
49071;SDS011;52656;52.610;10.236;2023-08-24T08:40:30;7.32;;;4.07;;
49071;SDS011;52656;52.610;10.236;2023-08-24T08:42:57;7.30;;;3.42;;
49071;SDS011;52656;52.610;10.236;2023-08-24T08:45:26;6.55;;;3.75;;
49071;SDS011;52656;52.610;10.236;2023-08-24T08:47:53;5.75;;;3.97;;
49071;SDS011;52656;52.610;10.236;2023-08-24T08:50:21;5.07;;;3.25;;
49071;SDS011;52656;52.610;10.236;2023-08-24T08:52:47;5.32;;;3.75;;
49071;SDS011;52656;52.610;10.236;2023-08-24T08:55:12;8.35;;;4.07;;
49071;SDS011;52656;52.610;10.236;2023-08-24T08:57:40;6.90;;;4.57;;
49071;SDS011;52656;52.610;10.236;2023-08-24T09:00:08;11.18;;;4.00;;
49071;SDS011;52656;52.610;10.236;2023-08-24T09:02:35;7.95;;;4.03;;
49071;SDS011;52656;52.610;10.236;2023-08-24T09:05:01;5.63;;;3.90;;
49071;SDS011;52656;52.610;10.236;2023-08-24T09:07:26;6.30;;;3.78;;
49071;SDS011;52656;52.610;10.236;2023-08-24T09:09:52;6.10;;;3.78;;
49071;SDS011;52656;52.610;10.236;2023-08-24T09:12:17;7.47;;;3.60;;
49071;SDS011;52656;52.610;10.236;2023-08-24T09:14:43;6.80;;;3.43;;
49071;SDS011;52656;52.610;10.236;2023-08-24T09:17:08;7.60;;;3.95;;
49071;SDS011;52656;52.610;10.236;2023-08-24T09:19:34;6.10;;;3.38;;
49071;SDS011;52656;52.610;10.236;2023-08-24T09:22:03;5.32;;;3.42;;
49071;SDS011;52656;52.610;10.236;2023-08-24T09:24:29;5.60;;;3.22;;
49071;SDS011;52656;52.610;10.236;2023-08-24T09:26:57;6.50;;;3.33;;
49071;SDS011;52656;52.610;10.236;2023-08-24T09:29:22;5.93;;;3.45;;
49071;SDS011;52656;52.610;10.236;2023-08-24T09:31:49;6.72;;;3.95;;
49071;SDS011;52656;52.610;10.236;2023-08-24T09:34:18;6.43;;;2.58;;
49071;SDS011;52656;52.610;10.236;2023-08-24T09:36:47;6.00;;;2.83;;
49071;SDS011;52656;52.610;10.236;2023-08-24T09:39:12;6.57;;;3.25;;
49071;SDS011;52656;52.610;10.236;2023-08-24T09:41:42;6.40;;;3.33;;
49071;SDS011;52656;52.610;10.236;2023-08-24T09:44:09;5.72;;;2.60;;
49071;SDS011;52656;52.610;10.236;2023-08-24T09:46:35;5.13;;;2.50;;
49071;SDS011;52656;52.610;10.236;2023-08-24T09:49:04;4.95;;;2.47;;
49071;SDS011;52656;52.610;10.236;2023-08-24T09:51:30;6.53;;;2.72;;
49071;SDS011;52656;52.610;10.236;2023-08-24T09:53:57;3.95;;;2.60;;
49071;SDS011;52656;52.610;10.236;2023-08-24T09:56:25;6.72;;;3.33;;
49071;SDS011;52656;52.610;10.236;2023-08-24T09:58:54;4.20;;;2.90;;
49071;SDS011;52656;52.610;10.236;2023-08-24T10:01:22;5.53;;;2.50;;
49071;SDS011;52656;52.610;10.236;2023-08-24T10:03:51;5.57;;;2.90;;
49071;SDS011;52656;52.610;10.236;2023-08-24T10:06:21;7.75;;;3.10;;
49071;SDS011;52656;52.610;10.236;2023-08-24T10:08:50;4.90;;;2.90;;
49071;SDS011;52656;52.610;10.236;2023-08-24T10:11:21;4.50;;;2.67;;
49071;SDS011;52656;52.610;10.236;2023-08-24T10:14:01;6.03;;;2.58;;
49071;SDS011;52656;52.610;10.236;2023-08-24T10:16:44;7.45;;;2.50;;
49071;SDS011;52656;52.610;10.236;2023-08-24T10:19:12;5.22;;;2.50;;
49071;SDS011;52656;52.610;10.236;2023-08-24T10:21:38;3.35;;;2.00;;
49071;SDS011;52656;52.610;10.236;2023-08-24T10:24:05;4.63;;;2.58;;
49071;SDS011;52656;52.610;10.236;2023-08-24T10:26:32;5.05;;;2.70;;
49071;SDS011;52656;52.610;10.236;2023-08-24T10:28:58;7.50;;;2.75;;
49071;SDS011;52656;52.610;10.236;2023-08-24T10:31:24;5.45;;;2.30;;
49071;SDS011;52656;52.610;10.236;2023-08-24T10:33:51;6.38;;;2.70;;
49071;SDS011;52656;52.610;10.236;2023-08-24T10:36:18;3.83;;;2.63;;
49071;SDS011;52656;52.610;10.236;2023-08-24T10:38:44;6.50;;;2.58;;
49071;SDS011;52656;52.610;10.236;2023-08-24T10:41:10;6.93;;;2.87;;
49071;SDS011;52656;52.610;10.236;2023-08-24T10:43:39;3.60;;;2.58;;
49071;SDS011;52656;52.610;10.236;2023-08-24T10:46:14;4.75;;;2.40;;
49071;SDS011;52656;52.610;10.236;2023-08-24T10:53:58;5.35;;;2.30;;
49071;SDS011;52656;52.610;10.236;2023-08-24T10:56:34;5.40;;;2.97;;
49071;SDS011;52656;52.610;10.236;2023-08-24T10:59:15;5.35;;;2.50;;
49071;SDS011;52656;52.610;10.236;2023-08-24T11:01:42;6.25;;;2.78;;
49071;SDS011;52656;52.610;10.236;2023-08-24T11:06:55;4.32;;;2.88;;
49071;SDS011;52656;52.610;10.236;2023-08-24T11:09:24;7.07;;;2.92;;
49071;SDS011;52656;52.610;10.236;2023-08-24T11:11:59;6.93;;;3.42;;
49071;SDS011;52656;52.610;10.236;2023-08-24T11:14:26;5.22;;;3.20;;
49071;SDS011;52656;52.610;10.236;2023-08-24T11:16:54;7.85;;;3.22;;
49071;SDS011;52656;52.610;10.236;2023-08-24T11:19:22;7.75;;;3.97;;
49071;SDS011;52656;52.610;10.236;2023-08-24T11:21:48;6.47;;;3.67;;
49071;SDS011;52656;52.610;10.236;2023-08-24T11:24:13;8.65;;;3.70;;
49071;SDS011;52656;52.610;10.236;2023-08-24T11:26:41;5.35;;;3.38;;
49071;SDS011;52656;52.610;10.236;2023-08-24T11:29:07;6.75;;;4.20;;
49071;SDS011;52656;52.610;10.236;2023-08-24T11:31:33;7.78;;;3.80;;
49071;SDS011;52656;52.610;10.236;2023-08-24T11:33:59;5.68;;;3.53;;
49071;SDS011;52656;52.610;10.236;2023-08-24T11:36:25;8.52;;;4.50;;
49071;SDS011;52656;52.610;10.236;2023-08-24T11:38:55;7.45;;;4.85;;
49071;SDS011;52656;52.610;10.236;2023-08-24T11:41:24;5.43;;;3.85;;
49071;SDS011;52656;52.610;10.236;2023-08-24T11:43:58;7.13;;;4.40;;
49071;SDS011;52656;52.610;10.236;2023-08-24T11:46:24;6.47;;;3.80;;
49071;SDS011;52656;52.610;10.236;2023-08-24T11:48:50;8.40;;;4.85;;
49071;SDS011;52656;52.610;10.236;2023-08-24T11:51:16;8.48;;;4.35;;
49071;SDS011;52656;52.610;10.236;2023-08-24T11:53:42;6.32;;;4.50;;
49071;SDS011;52656;52.610;10.236;2023-08-24T11:56:10;11.25;;;4.03;;
49071;SDS011;52656;52.610;10.236;2023-08-24T11:58:37;6.38;;;4.25;;
49071;SDS011;52656;52.610;10.236;2023-08-24T12:01:04;6.00;;;3.70;;
49071;SDS011;52656;52.610;10.236;2023-08-24T12:03:29;5.68;;;4.07;;
49071;SDS011;52656;52.610;10.236;2023-08-24T12:05:58;5.03;;;3.65;;
49071;SDS011;52656;52.610;10.236;2023-08-24T12:08:29;5.97;;;3.75;;
49071;SDS011;52656;52.610;10.236;2023-08-24T12:10:55;5.28;;;3.90;;
49071;SDS011;52656;52.610;10.236;2023-08-24T12:13:20;6.40;;;4.40;;
49071;SDS011;52656;52.610;10.236;2023-08-24T12:15:47;7.28;;;3.65;;
49071;SDS011;52656;52.610;10.236;2023-08-24T12:18:15;6.82;;;3.50;;
49071;SDS011;52656;52.610;10.236;2023-08-24T12:20:40;8.00;;;3.50;;
49071;SDS011;52656;52.610;10.236;2023-08-24T12:23:07;5.28;;;3.17;;
49071;SDS011;52656;52.610;10.236;2023-08-24T12:25:36;7.82;;;2.72;;
49071;SDS011;52656;52.610;10.236;2023-08-24T12:28:09;5.25;;;3.00;;
49071;SDS011;52656;52.610;10.236;2023-08-24T12:30:47;4.78;;;3.55;;
49071;SDS011;52656;52.610;10.236;2023-08-24T12:33:24;5.93;;;2.75;;
49071;SDS011;52656;52.610;10.236;2023-08-24T12:35:51;5.18;;;3.13;;
49071;SDS011;52656;52.610;10.236;2023-08-24T12:38:17;6.47;;;3.28;;
49071;SDS011;52656;52.610;10.236;2023-08-24T12:40:43;5.20;;;2.60;;
49071;SDS011;52656;52.610;10.236;2023-08-24T12:43:08;5.68;;;2.50;;
49071;SDS011;52656;52.610;10.236;2023-08-24T12:45:33;5.15;;;2.50;;
49071;SDS011;52656;52.610;10.236;2023-08-24T12:47:59;3.92;;;3.00;;
49071;SDS011;52656;52.610;10.236;2023-08-24T12:50:24;5.75;;;2.90;;
49071;SDS011;52656;52.610;10.236;2023-08-24T12:52:49;4.43;;;2.67;;
49071;SDS011;52656;52.610;10.236;2023-08-24T12:55:20;4.13;;;2.70;;
49071;SDS011;52656;52.610;10.236;2023-08-24T12:57:45;5.00;;;2.80;;
49071;SDS011;52656;52.610;10.236;2023-08-24T13:00:11;7.20;;;2.75;;
49071;SDS011;52656;52.610;10.236;2023-08-24T13:02:39;4.95;;;2.90;;
49071;SDS011;52656;52.610;10.236;2023-08-24T13:05:04;6.07;;;2.80;;
49071;SDS011;52656;52.610;10.236;2023-08-24T13:07:30;4.57;;;2.50;;
49071;SDS011;52656;52.610;10.236;2023-08-24T13:09:56;8.05;;;2.83;;
49071;SDS011;52656;52.610;10.236;2023-08-24T13:12:21;7.88;;;2.75;;
49071;SDS011;52656;52.610;10.236;2023-08-24T13:14:46;5.47;;;3.00;;
49071;SDS011;52656;52.610;10.236;2023-08-24T13:17:12;6.60;;;2.92;;
49071;SDS011;52656;52.610;10.236;2023-08-24T13:19:37;4.65;;;2.47;;
49071;SDS011;52656;52.610;10.236;2023-08-24T13:22:03;6.65;;;2.63;;
49071;SDS011;52656;52.610;10.236;2023-08-24T13:24:28;3.88;;;2.53;;
49071;SDS011;52656;52.610;10.236;2023-08-24T13:26:54;5.85;;;2.70;;
49071;SDS011;52656;52.610;10.236;2023-08-24T13:29:19;5.25;;;2.78;;
49071;SDS011;52656;52.610;10.236;2023-08-24T13:31:44;5.05;;;2.60;;
49071;SDS011;52656;52.610;10.236;2023-08-24T13:34:10;4.45;;;2.53;;
49071;SDS011;52656;52.610;10.236;2023-08-24T13:36:35;6.78;;;2.72;;
49071;SDS011;52656;52.610;10.236;2023-08-24T13:39:00;5.25;;;2.95;;
49071;SDS011;52656;52.610;10.236;2023-08-24T13:41:26;4.32;;;3.22;;
49071;SDS011;52656;52.610;10.236;2023-08-24T13:43:51;4.00;;;2.70;;
49071;SDS011;52656;52.610;10.236;2023-08-24T13:46:16;5.28;;;2.50;;
49071;SDS011;52656;52.610;10.236;2023-08-24T13:48:42;5.00;;;2.47;;
49071;SDS011;52656;52.610;10.236;2023-08-24T13:51:07;4.15;;;2.58;;
49071;SDS011;52656;52.610;10.236;2023-08-24T13:53:33;3.15;;;2.40;;
49071;SDS011;52656;52.610;10.236;2023-08-24T13:55:58;4.20;;;2.28;;
49071;SDS011;52656;52.610;10.236;2023-08-24T13:58:24;5.13;;;2.38;;
49071;SDS011;52656;52.610;10.236;2023-08-24T14:00:56;5.82;;;2.20;;
49071;SDS011;52656;52.610;10.236;2023-08-24T14:03:22;6.35;;;2.40;;
49071;SDS011;52656;52.610;10.236;2023-08-24T14:05:47;5.35;;;2.50;;
49071;SDS011;52656;52.610;10.236;2023-08-24T14:08:14;6.50;;;2.50;;
49071;SDS011;52656;52.610;10.236;2023-08-24T14:10:40;7.65;;;2.42;;
49071;SDS011;52656;52.610;10.236;2023-08-24T14:13:05;4.57;;;2.30;;
49071;SDS011;52656;52.610;10.236;2023-08-24T14:15:30;5.10;;;2.40;;
49071;SDS011;52656;52.610;10.236;2023-08-24T14:17:56;4.28;;;2.30;;
49071;SDS011;52656;52.610;10.236;2023-08-24T14:20:21;3.90;;;2.53;;
49071;SDS011;52656;52.610;10.236;2023-08-24T14:22:46;5.38;;;2.70;;
49071;SDS011;52656;52.610;10.236;2023-08-24T14:25:13;5.57;;;2.72;;
49071;SDS011;52656;52.610;10.236;2023-08-24T14:27:39;5.00;;;2.60;;
49071;SDS011;52656;52.610;10.236;2023-08-24T14:30:06;6.28;;;2.92;;
49071;SDS011;52656;52.610;10.236;2023-08-24T14:32:33;5.43;;;2.40;;
49071;SDS011;52656;52.610;10.236;2023-08-24T14:34:58;4.18;;;2.83;;
49071;SDS011;52656;52.610;10.236;2023-08-24T14:37:24;5.18;;;2.40;;
49071;SDS011;52656;52.610;10.236;2023-08-24T14:39:49;4.82;;;2.33;;
49071;SDS011;52656;52.610;10.236;2023-08-24T14:42:14;7.78;;;2.58;;
49071;SDS011;52656;52.610;10.236;2023-08-24T14:44:40;6.03;;;2.60;;
49071;SDS011;52656;52.610;10.236;2023-08-24T14:47:05;4.80;;;2.35;;
49071;SDS011;52656;52.610;10.236;2023-08-24T14:49:31;4.82;;;2.15;;
49071;SDS011;52656;52.610;10.236;2023-08-24T14:51:56;5.25;;;2.10;;
49071;SDS011;52656;52.610;10.236;2023-08-24T14:54:21;3.50;;;2.22;;
49071;SDS011;52656;52.610;10.236;2023-08-24T14:56:47;7.80;;;2.38;;
49071;SDS011;52656;52.610;10.236;2023-08-24T14:59:12;5.05;;;2.40;;
49071;SDS011;52656;52.610;10.236;2023-08-24T15:01:37;6.03;;;2.45;;
49071;SDS011;52656;52.610;10.236;2023-08-24T15:04:03;7.72;;;2.58;;
49071;SDS011;52656;52.610;10.236;2023-08-24T15:06:28;5.13;;;2.20;;
49071;SDS011;52656;52.610;10.236;2023-08-24T15:08:53;3.13;;;1.90;;
49071;SDS011;52656;52.610;10.236;2023-08-24T15:11:19;3.55;;;2.28;;
49071;SDS011;52656;52.610;10.236;2023-08-24T15:13:44;3.30;;;1.90;;
49071;SDS011;52656;52.610;10.236;2023-08-24T15:16:10;3.92;;;2.10;;
49071;SDS011;52656;52.610;10.236;2023-08-24T15:18:35;4.22;;;2.05;;
49071;SDS011;52656;52.610;10.236;2023-08-24T15:21:01;5.45;;;2.13;;
49071;SDS011;52656;52.610;10.236;2023-08-24T15:23:27;5.28;;;2.30;;
49071;SDS011;52656;52.610;10.236;2023-08-24T15:25:57;8.25;;;2.50;;
49071;SDS011;52656;52.610;10.236;2023-08-24T15:28:23;3.35;;;2.08;;
49071;SDS011;52656;52.610;10.236;2023-08-24T15:30:50;8.75;;;2.40;;
49071;SDS011;52656;52.610;10.236;2023-08-24T15:33:16;3.92;;;2.17;;
49071;SDS011;52656;52.610;10.236;2023-08-24T15:35:42;4.15;;;2.35;;
49071;SDS011;52656;52.610;10.236;2023-08-24T15:38:08;3.88;;;2.20;;
49071;SDS011;52656;52.610;10.236;2023-08-24T15:40:34;2.97;;;2.08;;
49071;SDS011;52656;52.610;10.236;2023-08-24T15:43:00;4.65;;;2.15;;
49071;SDS011;52656;52.610;10.236;2023-08-24T15:45:27;4.68;;;2.03;;
49071;SDS011;52656;52.610;10.236;2023-08-24T15:47:54;4.57;;;2.30;;
49071;SDS011;52656;52.610;10.236;2023-08-24T15:50:20;6.72;;;2.20;;
49071;SDS011;52656;52.610;10.236;2023-08-24T15:52:45;5.90;;;2.20;;
49071;SDS011;52656;52.610;10.236;2023-08-24T15:55:11;6.30;;;2.35;;
49071;SDS011;52656;52.610;10.236;2023-08-24T15:57:36;4.00;;;2.22;;
49071;SDS011;52656;52.610;10.236;2023-08-24T16:00:02;5.85;;;2.45;;
49071;SDS011;52656;52.610;10.236;2023-08-24T16:02:28;5.85;;;2.53;;
49071;SDS011;52656;52.610;10.236;2023-08-24T16:04:53;5.53;;;2.30;;
49071;SDS011;52656;52.610;10.236;2023-08-24T16:07:20;4.53;;;2.17;;
49071;SDS011;52656;52.610;10.236;2023-08-24T16:09:45;6.57;;;2.25;;
49071;SDS011;52656;52.610;10.236;2023-08-24T16:12:11;4.88;;;2.10;;
49071;SDS011;52656;52.610;10.236;2023-08-24T16:14:36;7.82;;;2.33;;
49071;SDS011;52656;52.610;10.236;2023-08-24T16:17:01;4.00;;;2.10;;
49071;SDS011;52656;52.610;10.236;2023-08-24T16:19:27;7.88;;;2.88;;
49071;SDS011;52656;52.610;10.236;2023-08-24T16:21:52;5.15;;;2.40;;
49071;SDS011;52656;52.610;10.236;2023-08-24T16:24:17;5.45;;;2.60;;
49071;SDS011;52656;52.610;10.236;2023-08-24T16:26:43;6.18;;;2.30;;
49071;SDS011;52656;52.610;10.236;2023-08-24T16:29:08;4.90;;;2.08;;
49071;SDS011;52656;52.610;10.236;2023-08-24T16:31:33;4.50;;;2.42;;
49071;SDS011;52656;52.610;10.236;2023-08-24T16:34:00;8.75;;;2.20;;
49071;SDS011;52656;52.610;10.236;2023-08-24T16:36:26;4.03;;;2.30;;
49071;SDS011;52656;52.610;10.236;2023-08-24T16:38:51;7.53;;;2.40;;
49071;SDS011;52656;52.610;10.236;2023-08-24T16:41:17;7.13;;;2.35;;
49071;SDS011;52656;52.610;10.236;2023-08-24T16:43:42;5.35;;;2.50;;
49071;SDS011;52656;52.610;10.236;2023-08-24T16:46:07;8.15;;;2.70;;
49071;SDS011;52656;52.610;10.236;2023-08-24T16:48:33;4.40;;;2.47;;
49071;SDS011;52656;52.610;10.236;2023-08-24T16:50:58;3.95;;;2.25;;
49071;SDS011;52656;52.610;10.236;2023-08-24T16:53:24;4.75;;;2.13;;
49071;SDS011;52656;52.610;10.236;2023-08-24T16:55:49;5.30;;;2.30;;
49071;SDS011;52656;52.610;10.236;2023-08-24T16:58:16;5.57;;;2.33;;
49071;SDS011;52656;52.610;10.236;2023-08-24T17:00:42;3.35;;;2.30;;
49071;SDS011;52656;52.610;10.236;2023-08-24T17:03:07;7.03;;;2.30;;
49071;SDS011;52656;52.610;10.236;2023-08-24T17:05:32;8.52;;;2.50;;
49071;SDS011;52656;52.610;10.236;2023-08-24T17:08:02;6.80;;;2.40;;
49071;SDS011;52656;52.610;10.236;2023-08-24T17:10:31;5.70;;;2.40;;